Time;durP1;ratioP1;P1;durP2;ratioP2;P2;SDS_P1;SDS_P2;PMS_P1;PMS_P2;Temp;Humidity;BMP_temperature;BMP_pressure;BME280_temperature;BME280_humidity;BME280_pressure;Samples;Min_cycle;Max_cycle;Signal;HPM_P1;HPM_P2
2023/04/26 00:00:07;;;;;;;6.93;2.78;;;;;;;4.52;79.40;102194.44;6073474;19;20013;-71
2023/04/26 00:02:16;;;;;;;5.38;2.70;;;;;;;4.45;79.23;102194.38;6086395;19;20006;-70
2023/04/26 00:04:39;;;;;;;4.55;2.33;;;;;;;4.43;79.56;102194.38;6097624;19;20025;-70
2023/04/26 00:06:45;;;;;;;5.32;2.33;;;;;;;4.39;80.26;102192.63;6099061;19;20388;-70
2023/04/26 00:08:58;;;;;;;6.07;2.70;;;;;;;4.33;81.96;102197.78;6102574;19;20364;-71
2023/04/26 00:11:09;;;;;;;9.80;2.80;;;;;;;4.29;80.89;102194.31;6098635;19;20459;-70
2023/04/26 00:13:14;;;;;;;7.63;2.97;;;;;;;4.28;81.12;102195.13;6097723;19;20462;-70
2023/04/26 00:15:42;;;;;;;6.15;2.72;;;;;;;4.20;81.42;102196.81;6094981;19;20011;-69
2023/04/26 00:17:49;;;;;;;7.60;3.28;;;;;;;4.11;81.98;102197.63;6092224;19;20117;-71
2023/04/26 00:20:08;;;;;;;4.97;2.60;;;;;;;4.05;83.02;102196.69;6100052;19;20083;-70
2023/04/26 00:22:19;;;;;;;6.65;2.90;;;;;;;3.95;84.40;102199.22;6098587;19;20027;-70
2023/04/26 00:24:29;;;;;;;7.50;2.80;;;;;;;3.92;84.35;102199.22;6097011;19;20018;-69
2023/04/26 00:26:36;;;;;;;9.52;2.67;;;;;;;3.89;84.49;102200.88;6090995;19;20016;-70
2023/04/26 00:28:45;;;;;;;7.90;2.72;;;;;;;3.80;85.47;102193.03;6101211;19;20347;-70
2023/04/26 00:30:58;;;;;;;5.25;2.75;;;;;;;3.83;86.47;102188.72;6091649;19;20021;-69
2023/04/26 00:33:11;;;;;;;9.70;3.10;;;;;;;3.76;84.43;102193.84;6096519;19;20042;-70
2023/04/26 00:35:21;;;;;;;4.72;2.72;;;;;;;3.70;84.41;102195.53;6098752;19;20010;-70
2023/04/26 00:37:34;;;;;;;10.60;4.65;;;;;;;3.69;85.31;102196.38;6093578;19;20038;-70
2023/04/26 00:39:43;;;;;;;7.38;2.85;;;;;;;3.63;85.08;102200.63;6076433;19;20385;-69
2023/04/26 00:41:56;;;;;;;8.60;3.33;;;;;;;3.57;85.70;102192.78;6087191;19;20073;-70
2023/04/26 00:44:01;;;;;;;7.93;3.33;;;;;;;3.49;86.55;102192.72;6101581;19;20020;-70
2023/04/26 00:46:11;;;;;;;8.70;3.20;;;;;;;3.46;85.21;102188.34;6071846;19;20034;-70
2023/04/26 00:48:18;;;;;;;9.52;3.95;;;;;;;3.43;86.68;102193.53;6077318;19;20014;-71
2023/04/26 00:50:29;;;;;;;6.85;3.65;;;;;;;3.41;86.66;102191.75;6099756;19;20013;-69
2023/04/26 00:52:38;;;;;;;9.40;4.30;;;;;;;3.37;85.54;102198.66;6099176;19;20034;-69
2023/04/26 00:54:54;;;;;;;11.05;4.80;;;;;;;3.34;85.10;102190.81;6077981;19;20101;-71
2023/04/26 00:57:08;;;;;;;10.90;5.20;;;;;;;3.32;85.40;102197.75;6089768;19;20005;-70
2023/04/26 00:59:16;;;;;;;13.20;5.00;;;;;;;3.34;86.04;102190.81;6070481;19;20134;-70
2023/04/26 01:01:44;;;;;;;11.00;5.38;;;;;;;3.29;86.65;102192.47;6074002;19;20019;-70
2023/04/26 01:04:04;;;;;;;10.35;5.15;;;;;;;3.21;87.58;102189.81;6082203;19;20025;-70
2023/04/26 01:06:19;;;;;;;9.70;4.55;;;;;;;3.16;88.10;102194.09;6059681;19;20479;-70
2023/04/26 01:08:29;;;;;;;9.43;5.18;;;;;;;3.16;86.85;102190.59;6095582;19;20080;-70
2023/04/26 01:10:43;;;;;;;12.32;4.97;;;;;;;3.12;87.25;102194.03;6096478;19;20074;-76
2023/04/26 01:12:48;;;;;;;13.65;4.50;;;;;;;3.09;87.07;102189.66;6099221;19;20018;-76
2023/04/26 01:14:54;;;;;;;12.20;5.38;;;;;;;3.03;88.86;102187.88;6098999;19;20006;-76
2023/04/26 01:17:02;;;;;;;9.43;4.85;;;;;;;3.02;89.16;102191.31;6098091;19;20011;-76
2023/04/26 01:19:12;;;;;;;13.23;5.63;;;;;;;2.99;89.66;102193.88;6101850;19;20097;-77
2023/04/26 01:21:22;;;;;;;17.30;6.53;;;;;;;2.95;90.01;102191.19;6103443;19;20052;-77
2023/04/26 01:23:30;;;;;;;12.95;5.20;;;;;;;2.90;89.72;102195.47;6100402;19;20011;-76
2023/04/26 01:25:36;;;;;;;13.18;5.47;;;;;;;2.90;90.38;102193.75;6100894;19;20010;-77
2023/04/26 01:27:41;;;;;;;10.10;5.10;;;;;;;2.86;87.80;102189.38;6100574;19;20006;-76
2023/04/26 01:29:46;;;;;;;10.25;4.32;;;;;;;2.85;89.58;102196.28;6099936;19;20500;-76
2023/04/26 01:31:51;;;;;;;8.73;4.03;;;;;;;2.78;89.40;102198.78;6099948;19;20006;-77
2023/04/26 01:33:57;;;;;;;8.40;4.13;;;;;;;2.74;88.27;102189.19;6101538;19;20462;-77
2023/04/26 01:36:02;;;;;;;7.65;3.38;;;;;;;2.73;88.64;102193.53;6103028;19;20007;-77
2023/04/26 01:38:07;;;;;;;12.55;3.95;;;;;;;2.75;89.58;102193.56;6103919;19;20456;-77
2023/04/26 01:40:15;;;;;;;7.72;4.07;;;;;;;2.69;89.18;102193.47;6103066;19;20011;-76
2023/04/26 01:42:22;;;;;;;8.98;3.47;;;;;;;2.68;88.85;102189.13;6101996;19;20516;-76
2023/04/26 01:44:28;;;;;;;11.82;4.05;;;;;;;2.63;89.50;102192.53;6100989;19;20575;-76
2023/04/26 01:46:32;;;;;;;13.98;4.60;;;;;;;2.61;89.74;102191.66;6097821;19;20074;-76
2023/04/26 01:48:37;;;;;;;5.97;3.42;;;;;;;2.60;89.27;102191.59;6100969;19;20015;-76
2023/04/26 01:50:42;;;;;;;8.80;3.45;;;;;;;2.56;88.91;102190.72;6101767;19;20003;-76
2023/04/26 01:52:49;;;;;;;7.80;3.53;;;;;;;2.53;90.11;102192.41;6096205;19;20259;-76
2023/04/26 01:54:54;;;;;;;6.57;4.32;;;;;;;2.51;88.78;102191.50;6102105;19;21155;-75
2023/04/26 01:57:02;;;;;;;9.70;3.67;;;;;;;2.55;90.57;102194.13;6099575;19;20037;-76
2023/04/26 01:59:06;;;;;;;9.60;4.22;;;;;;;2.50;90.19;102193.22;6101100;19;20005;-77
2023/04/26 02:01:12;;;;;;;8.52;4.15;;;;;;;2.52;91.48;102196.69;6099028;19;20006;-76
2023/04/26 02:03:17;;;;;;;10.02;4.20;;;;;;;2.54;90.86;102194.13;6099002;19;20386;-76
2023/04/26 02:05:25;;;;;;;10.65;4.30;;;;;;;2.54;89.69;102195.00;6100494;19;20011;-76
2023/04/26 02:07:31;;;;;;;8.00;4.03;;;;;;;2.54;89.61;102188.94;6101953;19;20085;-76
2023/04/26 02:09:38;;;;;;;10.93;4.25;;;;;;;2.56;90.20;102197.63;6101127;19;20046;-76
2023/04/26 02:11:43;;;;;;;10.15;5.32;;;;;;;2.56;89.83;102188.09;6101202;19;20081;-76
2023/04/26 02:13:51;;;;;;;10.50;4.28;;;;;;;2.57;90.64;102191.56;6095923;19;20006;-75
2023/04/26 02:15:58;;;;;;;10.07;3.97;;;;;;;2.59;90.95;102195.06;6097492;19;20034;-76
2023/04/26 02:18:03;;;;;;;9.82;4.50;;;;;;;2.60;91.63;102194.22;6097328;19;20605;-77
2023/04/26 02:20:10;;;;;;;11.00;5.85;;;;;;;2.61;92.09;102194.25;6100740;19;20387;-76
2023/04/26 02:22:16;;;;;;;11.07;4.85;;;;;;;2.57;91.53;102186.38;6097492;19;20522;-76
2023/04/26 02:24:23;;;;;;;10.50;4.72;;;;;;;2.60;92.27;102186.41;6097945;19;20367;-76
2023/04/26 02:26:28;;;;;;;9.45;4.20;;;;;;;2.58;90.98;102181.22;6100757;19;20007;-76
2023/04/26 02:28:33;;;;;;;9.43;4.13;;;;;;;2.62;90.21;102198.56;6096824;19;20288;-76
2023/04/26 02:30:40;;;;;;;9.65;3.75;;;;;;;2.62;89.43;102184.72;6098483;19;20063;-76
2023/04/26 02:32:45;;;;;;;10.40;4.57;;;;;;;2.72;91.51;102188.34;6098577;19;20097;-76
2023/04/26 02:34:52;;;;;;;9.52;4.28;;;;;;;2.77;92.27;102189.25;6098645;19;20466;-76
2023/04/26 02:36:58;;;;;;;8.20;3.92;;;;;;;2.77;91.20;102187.53;6102045;19;20034;-76
2023/04/26 02:39:04;;;;;;;9.60;4.18;;;;;;;2.78;90.78;102189.25;6104762;19;20745;-76
2023/04/26 02:41:09;;;;;;;9.57;4.63;;;;;;;2.77;90.66;102184.06;6106036;19;20546;-76
2023/04/26 02:43:14;;;;;;;8.43;4.15;;;;;;;2.70;90.56;102177.03;6105689;19;20363;-76
2023/04/26 02:45:18;;;;;;;12.00;5.07;;;;;;;2.63;91.46;102181.25;6106857;19;20031;-76
2023/04/26 02:47:27;;;;;;;12.10;4.20;;;;;;;2.64;92.31;102173.50;6104655;19;20349;-76
2023/04/26 02:49:33;;;;;;;8.88;3.92;;;;;;;2.60;90.46;102174.31;6107441;19;20009;-76
2023/04/26 02:51:38;;;;;;;8.15;3.85;;;;;;;2.59;90.59;102171.72;6105125;19;20085;-76
2023/04/26 02:53:43;;;;;;;8.60;4.13;;;;;;;2.61;90.45;102180.41;6103164;19;20017;-76
2023/04/26 02:55:48;;;;;;;8.25;3.85;;;;;;;2.61;90.61;102176.06;6103765;19;20035;-75
2023/04/26 02:57:53;;;;;;;11.70;4.93;;;;;;;2.65;92.19;102179.56;6105592;19;20015;-76
2023/04/26 02:59:58;;;;;;;10.73;4.53;;;;;;;2.64;91.99;102173.50;6104172;19;20010;-75
2023/04/26 03:02:03;;;;;;;8.00;3.83;;;;;;;2.72;92.11;102168.44;6104984;19;20086;-76
2023/04/26 03:04:11;;;;;;;8.23;4.25;;;;;;;2.72;90.46;102173.63;6104682;19;20011;-76
2023/04/26 03:06:16;;;;;;;7.32;3.70;;;;;;;2.74;90.51;102173.63;6103524;19;20018;-77
2023/04/26 03:08:21;;;;;;;8.30;4.07;;;;;;;2.74;91.51;102171.94;6103540;19;20485;-77
2023/04/26 03:10:27;;;;;;;9.00;4.50;;;;;;;2.78;91.47;102172.81;6105467;19;20557;-76
2023/04/26 03:12:32;;;;;;;7.15;3.42;;;;;;;2.82;92.73;102169.44;6104943;19;20007;-77
2023/04/26 03:14:38;;;;;;;7.93;3.83;;;;;;;2.88;92.32;102171.22;6104421;19;20364;-76
2023/04/26 03:16:45;;;;;;;12.60;4.40;;;;;;;2.91;91.79;102171.25;6104321;19;20118;-76
2023/04/26 03:18:52;;;;;;;9.98;4.68;;;;;;;2.95;92.74;102175.63;6103041;19;20710;-75
2023/04/26 03:21:01;;;;;;;11.75;4.38;;;;;;;2.95;92.30;102166.13;6103188;19;20373;-76
2023/04/26 03:23:06;;;;;;;9.15;3.35;;;;;;;2.90;92.54;102170.41;6106701;19;20367;-76
2023/04/26 03:25:12;;;;;;;10.15;4.10;;;;;;;2.85;91.62;102175.53;6108953;19;20011;-76
2023/04/26 03:27:16;;;;;;;9.38;4.20;;;;;;;2.83;91.90;102171.16;6109180;19;20677;-76
2023/04/26 03:29:21;;;;;;;10.50;3.90;;;;;;;2.80;92.01;102169.41;6108787;19;20465;-76
2023/04/26 03:31:28;;;;;;;8.95;4.20;;;;;;;2.74;91.78;102171.94;6111003;19;20082;-76
2023/04/26 03:33:33;;;;;;;8.80;3.75;;;;;;;2.71;91.28;102161.47;6107222;19;20003;-76
2023/04/26 03:35:38;;;;;;;6.97;3.45;;;;;;;2.72;90.82;102159.78;6106143;19;20471;-75
2023/04/26 03:37:46;;;;;;;9.43;4.25;;;;;;;2.69;92.26;102162.34;6107882;19;20065;-76
2023/04/26 03:39:52;;;;;;;7.38;3.28;;;;;;;2.64;91.51;102157.06;6103458;19;20014;-75
2023/04/26 03:41:57;;;;;;;9.50;3.70;;;;;;;2.62;92.54;102166.56;6104605;19;20068;-75
2023/04/26 03:44:02;;;;;;;9.00;3.78;;;;;;;2.55;91.89;102160.41;6107037;19;20030;-75
2023/04/26 03:46:07;;;;;;;9.65;3.55;;;;;;;2.55;92.97;102154.34;6107647;19;20015;-75
2023/04/26 03:48:12;;;;;;;8.02;3.88;;;;;;;2.51;92.33;102157.75;6101511;19;20002;-75
2023/04/26 03:50:18;;;;;;;6.25;3.47;;;;;;;2.42;92.69;102154.19;6102579;19;20473;-75
2023/04/26 03:52:23;;;;;;;10.50;3.53;;;;;;;2.39;92.04;102141.16;6100387;19;20453;-74
2023/04/26 03:54:30;;;;;;;11.85;4.07;;;;;;;2.42;92.63;102149.00;6101696;19;20016;-75
2023/04/26 03:56:35;;;;;;;6.80;3.67;;;;;;;2.37;91.85;102147.16;6103430;19;20077;-75
2023/04/26 03:58:40;;;;;;;7.15;3.70;;;;;;;2.33;91.67;102148.00;6101810;19;20058;-77
2023/04/26 04:00:45;;;;;;;8.50;3.83;;;;;;;2.30;91.79;102146.22;6103802;19;20013;-76
2023/04/26 04:02:51;;;;;;;6.88;3.50;;;;;;;2.27;91.58;102143.59;6100634;19;20687;-75
2023/04/26 04:04:57;;;;;;;8.63;3.67;;;;;;;2.22;92.56;102146.97;6102721;19;20002;-76
2023/04/26 04:07:02;;;;;;;8.90;4.07;;;;;;;2.20;91.60;102147.81;6104156;19;20007;-76
2023/04/26 04:09:08;;;;;;;11.07;4.00;;;;;;;2.20;92.20;102149.53;6101425;19;20007;-76
2023/04/26 04:11:16;;;;;;;10.05;4.25;;;;;;;2.18;91.92;102153.81;6099333;19;20420;-76
2023/04/26 04:13:24;;;;;;;8.93;3.72;;;;;;;2.20;92.84;102149.53;6102511;19;20155;-76
2023/04/26 04:15:29;;;;;;;10.48;4.82;;;;;;;2.15;93.04;102154.63;6104596;19;20006;-76
2023/04/26 04:17:34;;;;;;;9.20;4.18;;;;;;;2.22;93.12;102158.22;6100052;19;20447;-76
2023/04/26 04:19:42;;;;;;;9.30;4.40;;;;;;;2.25;92.30;102159.97;6102484;19;20795;-75
2023/04/26 04:21:47;;;;;;;10.43;4.28;;;;;;;2.31;93.30;102163.53;6098726;19;20262;-73
2023/04/26 04:23:54;;;;;;;9.77;4.28;;;;;;;2.35;93.33;102162.72;6099242;19;20006;-75
2023/04/26 04:25:59;;;;;;;8.55;4.13;;;;;;;2.38;92.82;102159.31;6103146;19;20003;-74
2023/04/26 04:28:07;;;;;;;10.82;4.55;;;;;;;2.42;92.62;102155.88;6102314;19;20340;-75
2023/04/26 04:30:13;;;;;;;12.07;5.13;;;;;;;2.50;93.64;102163.78;6099060;19;20006;-75
2023/04/26 04:32:18;;;;;;;13.50;5.63;;;;;;;2.56;93.50;102167.34;6102069;19;20018;-75
2023/04/26 04:34:25;;;;;;;10.27;4.38;;;;;;;2.62;93.60;102167.44;6100080;19;20486;-74
2023/04/26 04:36:30;;;;;;;10.07;4.60;;;;;;;2.71;94.17;102165.81;6101100;19;20071;-75
2023/04/26 04:38:35;;;;;;;11.48;4.80;;;;;;;2.69;92.57;102165.81;6101723;19;19999;-75
2023/04/26 04:40:43;;;;;;;10.07;4.65;;;;;;;2.72;92.72;102162.38;6081414;19;20017;-69
2023/04/26 04:43:05;;;;;;;12.23;5.47;;;;;;;2.75;93.19;102165.00;6096460;19;20703;-69
2023/04/26 04:45:26;;;;;;;11.25;4.55;;;;;;;2.74;92.72;102166.72;6100907;19;20455;-70
2023/04/26 04:47:36;;;;;;;11.40;5.10;;;;;;;2.74;93.16;102165.84;6090598;19;20026;-69
2023/04/26 04:49:59;;;;;;;12.57;5.82;;;;;;;2.73;92.50;102166.69;6088710;19;20030;-69
2023/04/26 04:52:09;;;;;;;9.88;4.88;;;;;;;2.74;92.15;102165.84;6075887;19;20376;-69
2023/04/26 04:54:18;;;;;;;8.23;4.00;;;;;;;2.75;92.12;102165.88;6073127;19;20026;-69
2023/04/26 04:56:36;;;;;;;11.43;5.05;;;;;;;2.76;92.63;102164.13;6089054;19;20015;-69
2023/04/26 04:58:46;;;;;;;11.55;4.38;;;;;;;2.78;91.94;102170.22;6074245;19;20010;-69
2023/04/26 05:01:04;;;;;;;8.77;4.38;;;;;;;2.82;92.28;102169.44;6092026;19;20046;-69
2023/04/26 05:03:18;;;;;;;12.90;4.97;;;;;;;2.84;92.41;102171.19;6073070;19;20018;-70
2023/04/26 05:05:31;;;;;;;8.98;4.75;;;;;;;2.88;91.59;102163.44;6086742;19;20014;-69
2023/04/26 05:07:39;;;;;;;12.15;4.40;;;;;;;2.93;92.47;102169.56;6099309;19;20073;-70
2023/04/26 05:09:48;;;;;;;10.38;4.28;;;;;;;2.96;92.18;102169.59;6096170;19;20456;-70
2023/04/26 05:11:55;;;;;;;9.00;4.00;;;;;;;3.00;91.71;102161.88;6096799;19;20016;-75
2023/04/26 05:14:00;;;;;;;13.70;4.70;;;;;;;3.05;90.96;102162.81;6100767;19;20066;-75
2023/04/26 05:16:08;;;;;;;13.70;4.70;;;;;;;3.13;91.35;102160.25;6101240;19;20034;-75
2023/04/26 05:18:13;;;;;;;11.73;4.95;;;;;;;3.24;90.68;102160.41;6101000;19;20021;-75
2023/04/26 05:20:18;;;;;;;7.63;3.80;;;;;;;3.33;90.52;102163.09;6098380;19;20014;-76
2023/04/26 05:22:24;;;;;;;10.80;4.32;;;;;;;3.49;90.52;102165.00;6100231;19;20037;-76
2023/04/26 05:24:32;;;;;;;10.60;4.50;;;;;;;3.65;89.93;102165.16;6099333;19;20011;-76
2023/04/26 05:26:37;;;;;;;12.07;4.50;;;;;;;3.77;89.52;102167.00;6101821;19;20019;-76
2023/04/26 05:28:42;;;;;;;9.45;4.25;;;;;;;3.93;89.42;102164.53;6102369;19;20508;-76
2023/04/26 05:30:48;;;;;;;11.48;4.28;;;;;;;4.08;89.13;102166.41;6099693;19;20305;-76
2023/04/26 05:32:58;;;;;;;13.00;4.85;;;;;;;4.25;88.26;102171.72;6102013;19;20142;-76
2023/04/26 05:35:03;;;;;;;11.02;5.18;;;;;;;4.45;87.74;102166.66;6100652;19;20127;-76
2023/04/26 05:37:09;;;;;;;8.90;4.13;;;;;;;4.65;88.01;102168.47;6099249;19;20267;-77
2023/04/26 05:39:14;;;;;;;9.85;4.35;;;;;;;4.84;86.15;102173.81;6099620;19;20014;-76
2023/04/26 05:41:19;;;;;;;10.70;4.50;;;;;;;4.90;85.20;102172.97;6102346;19;20013;-77
2023/04/26 05:43:25;;;;;;;11.80;5.03;;;;;;;5.06;85.35;102176.50;6100252;19;20031;-77
2023/04/26 05:45:30;;;;;;;10.25;4.50;;;;;;;5.15;84.43;102171.28;6098299;19;20003;-77
2023/04/26 05:47:35;;;;;;;13.10;4.78;;;;;;;5.38;84.92;102176.59;6101374;19;20007;-77
2023/04/26 05:49:43;;;;;;;11.55;4.95;;;;;;;5.68;84.32;102178.38;6100551;19;20038;-76
2023/04/26 05:51:48;;;;;;;13.45;4.65;;;;;;;5.97;79.77;102174.94;6098223;19;20023;-77
2023/04/26 05:53:53;;;;;;;11.95;5.20;;;;;;;6.18;81.38;102179.28;6097553;19;20475;-76
2023/04/26 05:55:58;;;;;;;8.75;4.47;;;;;;;6.27;81.02;102176.69;6099339;19;20563;-76
2023/04/26 05:58:03;;;;;;;8.98;4.70;;;;;;;6.32;80.63;102179.28;6101717;19;20011;-76
2023/04/26 06:00:11;;;;;;;10.57;4.68;;;;;;;6.28;79.76;102180.16;6102317;19;20011;-76
2023/04/26 06:02:16;;;;;;;12.10;5.53;;;;;;;6.14;78.77;102186.25;6099895;19;20462;-76
2023/04/26 06:04:22;;;;;;;9.52;4.43;;;;;;;6.14;80.21;102186.25;6100643;19;20010;-78
2023/04/26 06:06:31;;;;;;;11.90;4.15;;;;;;;6.25;82.17;102188.84;6102247;19;20007;-76
2023/04/26 06:08:36;;;;;;;9.80;4.35;;;;;;;6.23;80.72;102193.22;6104366;19;20494;-75
2023/04/26 06:10:41;;;;;;;9.57;3.88;;;;;;;6.37;81.56;102194.06;6100500;19;20006;-76
2023/04/26 06:12:46;;;;;;;9.15;4.15;;;;;;;6.40;77.87;102195.81;6105327;19;20002;-76
2023/04/26 06:14:51;;;;;;;12.65;4.60;;;;;;;6.48;79.36;102204.50;6105801;19;20578;-76
2023/04/26 06:16:57;;;;;;;8.48;3.88;;;;;;;6.50;80.49;102202.78;6107378;19;20006;-75
2023/04/26 06:19:02;;;;;;;10.38;4.18;;;;;;;6.49;79.86;102206.22;6106350;19;20348;-76
2023/04/26 06:21:08;;;;;;;14.02;4.95;;;;;;;6.45;79.13;102212.34;6106588;19;20003;-76
2023/04/26 06:23:22;;;;;;;12.52;4.78;;;;;;;6.50;78.23;102205.38;6104763;19;20614;-70
2023/04/26 06:25:31;;;;;;;9.88;4.32;;;;;;;6.54;77.73;102208.84;6100508;19;20469;-69
2023/04/26 06:27:38;;;;;;;15.57;5.60;;;;;;;6.64;78.87;102212.31;6105692;19;20015;-70
2023/04/26 06:29:49;;;;;;;12.88;4.40;;;;;;;6.69;78.60;102211.44;6101858;19;20030;-70
2023/04/26 06:32:01;;;;;;;10.77;4.45;;;;;;;6.74;77.27;102207.06;6058771;19;20124;-69
2023/04/26 06:34:13;;;;;;;11.30;4.45;;;;;;;6.76;77.28;102210.50;6074649;19;20445;-70
2023/04/26 06:36:32;;;;;;;12.07;4.95;;;;;;;6.84;78.52;102213.09;6094707;19;20014;-69
2023/04/26 06:38:52;;;;;;;13.82;5.20;;;;;;;6.76;76.97;102220.09;6104724;19;20038;-69
2023/04/26 06:41:05;;;;;;;11.85;4.88;;;;;;;6.96;77.07;102213.09;6102399;19;20518;-70
2023/04/26 06:43:16;;;;;;;11.82;4.68;;;;;;;7.08;77.01;102208.69;6096289;19;20016;-70
2023/04/26 06:45:32;;;;;;;10.25;5.15;;;;;;;7.24;76.36;102207.72;6100888;19;20006;-70
2023/04/26 06:47:52;;;;;;;10.68;4.60;;;;;;;7.14;72.01;102199.06;6099945;19;20015;-70
2023/04/26 06:50:02;;;;;;;12.82;4.57;;;;;;;7.02;71.65;102199.97;6076387;19;20361;-70
2023/04/26 06:52:12;;;;;;;8.75;3.90;;;;;;;7.13;70.58;102199.94;6100551;19;20059;-70
2023/04/26 06:54:32;;;;;;;6.45;3.45;;;;;;;7.34;70.87;102198.09;6076559;19;20023;-71
2023/04/26 06:56:43;;;;;;;8.80;4.13;;;;;;;7.53;70.60;102204.09;6105932;19;19999;-76
2023/04/26 06:59:02;;;;;;;8.48;3.28;;;;;;;7.72;71.75;102200.50;6108037;19;20033;-76
2023/04/26 07:01:08;;;;;;;10.07;3.72;;;;;;;7.66;70.66;102198.78;6105504;19;20006;-76
2023/04/26 07:03:13;;;;;;;6.28;3.22;;;;;;;7.51;67.74;102201.50;6104479;19;20014;-76
2023/04/26 07:05:18;;;;;;;8.07;3.67;;;;;;;7.54;69.35;102200.63;6102628;19;20334;-76
2023/04/26 07:07:24;;;;;;;7.55;3.38;;;;;;;7.57;70.89;102204.06;6104983;19;20023;-76
2023/04/26 07:09:32;;;;;;;9.15;3.95;;;;;;;7.29;69.45;102205.97;6105817;19;20105;-77
2023/04/26 07:11:37;;;;;;;8.82;3.25;;;;;;;7.40;68.67;102192.84;6105023;19;20020;-76
2023/04/26 07:13:42;;;;;;;7.05;3.35;;;;;;;7.95;66.91;102204.69;6103437;19;20007;-75
2023/04/26 07:15:47;;;;;;;6.32;3.13;;;;;;;8.26;66.15;102200.91;6098930;19;20501;-75
2023/04/26 07:17:54;;;;;;;8.35;4.07;;;;;;;8.36;66.24;102214.81;6101442;19;20015;-75
2023/04/26 07:19:59;;;;;;;9.27;3.28;;;;;;;8.44;65.77;102209.53;6102339;19;20467;-75
2023/04/26 07:22:05;;;;;;;7.43;2.90;;;;;;;8.20;65.95;102210.59;6102574;19;20054;-75
2023/04/26 07:24:12;;;;;;;7.72;2.80;;;;;;;8.18;64.93;102209.75;6102315;19;20019;-75
2023/04/26 07:26:22;;;;;;;6.10;2.90;;;;;;;7.87;63.48;102203.00;6105256;19;20775;-75
2023/04/26 07:28:28;;;;;;;5.75;2.28;;;;;;;7.30;64.94;102217.31;6100807;19;20038;-74
2023/04/26 07:30:33;;;;;;;5.25;2.42;;;;;;;7.03;66.88;102221.78;6103469;19;20026;-75
2023/04/26 07:32:38;;;;;;;5.93;2.45;;;;;;;6.99;68.03;102222.66;6102115;19;20016;-74
2023/04/26 07:34:44;;;;;;;5.53;2.22;;;;;;;6.64;68.48;102213.19;6101635;19;20078;-75
2023/04/26 07:36:49;;;;;;;7.18;2.83;;;;;;;6.47;68.99;102218.41;6100241;19;20497;-75
2023/04/26 07:38:54;;;;;;;6.47;2.13;;;;;;;6.70;69.22;102221.00;6103541;19;20010;-76
2023/04/26 07:41:00;;;;;;;5.05;2.90;;;;;;;6.70;67.44;102223.59;6101185;19;20036;-76
2023/04/26 07:43:07;;;;;;;5.53;2.30;;;;;;;6.90;67.84;102226.19;6103007;19;20473;-77
2023/04/26 07:45:13;;;;;;;5.40;2.30;;;;;;;6.86;67.16;102226.19;6102794;19;20547;-77
2023/04/26 07:47:18;;;;;;;3.83;2.33;;;;;;;6.64;66.51;102230.59;6103566;19;20428;-76
2023/04/26 07:49:24;;;;;;;5.18;2.40;;;;;;;6.62;67.43;102230.59;6102456;19;20335;-76
2023/04/26 07:51:29;;;;;;;2.72;2.03;;;;;;;6.67;66.71;102233.19;6101962;19;20486;-76
2023/04/26 07:53:34;;;;;;;5.25;2.20;;;;;;;6.56;63.44;102235.84;6099722;19;19998;-77
2023/04/26 07:55:42;;;;;;;4.13;2.22;;;;;;;6.81;65.08;102227.06;6106037;19;20077;-76
2023/04/26 07:57:47;;;;;;;4.68;2.33;;;;;;;6.88;63.29;102225.31;6101863;19;20500;-76
2023/04/26 07:59:58;;;;;;;4.65;2.00;;;;;;;7.00;64.37;102224.38;6102876;19;20399;-76
2023/04/26 08:02:03;;;;;;;3.13;2.10;;;;;;;7.15;63.11;102219.09;6103374;19;20366;-77
2023/04/26 08:04:08;;;;;;;2.70;1.80;;;;;;;7.23;62.01;102221.69;6105136;19;20506;-77
2023/04/26 08:06:13;;;;;;;3.50;2.17;;;;;;;7.37;63.17;102225.13;6101431;19;20010;-77
2023/04/26 08:08:18;;;;;;;4.00;2.00;;;;;;;7.57;64.41;102234.59;6102884;19;20018;-77
2023/04/26 08:10:23;;;;;;;3.50;2.00;;;;;;;7.66;61.88;102238.03;6103770;19;20124;-77
2023/04/26 08:12:28;;;;;;;3.78;2.10;;;;;;;7.35;60.35;102229.47;6103905;19;20027;-77
2023/04/26 08:14:33;;;;;;;6.07;2.72;;;;;;;7.45;61.08;102228.56;6104279;19;20121;-77
2023/04/26 08:16:40;;;;;;;6.40;2.20;;;;;;;7.69;61.96;102226.69;6099762;19;20017;-78
2023/04/26 08:18:46;;;;;;;4.05;2.10;;;;;;;7.80;61.41;102232.72;5950912;19;2949416;-75
2023/04/26 08:20:54;;;;;;;2.90;2.30;;;;;;;7.60;57.73;102231.97;6103101;19;20097;-76
2023/04/26 08:23:00;;;;;;;3.45;1.85;;;;;;;7.47;58.48;102225.91;6104432;19;20758;-76
2023/04/26 08:25:05;;;;;;;3.42;1.88;;;;;;;7.45;57.13;102230.28;6105216;19;20078;-76
2023/04/26 08:27:10;;;;;;;2.53;1.95;;;;;;;7.50;57.62;102225.91;6104158;19;20006;-77
2023/04/26 08:29:16;;;;;;;3.33;1.85;;;;;;;7.43;57.31;102227.69;6105317;19;20024;-78
2023/04/26 08:31:22;;;;;;;6.82;2.10;;;;;;;7.33;57.74;102230.38;6103187;19;20009;-77
2023/04/26 08:33:30;;;;;;;6.05;2.78;;;;;;;7.46;59.62;102237.28;6104256;19;20003;-78
2023/04/26 08:35:36;;;;;;;5.63;2.17;;;;;;;7.25;60.45;102241.72;6101795;19;20011;-78
2023/04/26 08:37:41;;;;;;;4.20;1.85;;;;;;;7.40;62.49;102235.56;6101105;19;20839;-78
2023/04/26 08:39:46;;;;;;;5.68;2.30;;;;;;;7.79;62.91;102233.56;6095432;19;20014;-78
2023/04/26 08:41:56;;;;;;;4.65;1.90;;;;;;;7.93;63.34;102230.03;6102853;19;20006;-78
2023/04/26 08:44:04;;;;;;;2.67;1.83;;;;;;;8.02;62.41;102229.94;6102594;19;20006;-71
2023/04/26 08:46:12;;;;;;;3.00;1.90;;;;;;;8.12;62.36;102229.00;6101927;19;20656;-70
2023/04/26 08:48:19;;;;;;;5.25;1.88;;;;;;;8.30;62.23;102227.97;6104225;19;20090;-70
2023/04/26 08:50:28;;;;;;;4.88;2.00;;;;;;;8.24;61.23;102223.66;6101688;19;20010;-70
2023/04/26 08:52:34;;;;;;;3.63;1.80;;;;;;;8.32;61.27;102226.19;6095599;19;20030;-70
2023/04/26 08:54:40;;;;;;;5.70;1.90;;;;;;;8.40;60.43;102229.66;6102449;19;20014;-70
2023/04/26 08:56:46;;;;;;;5.55;2.42;;;;;;;8.44;60.86;102230.50;6102073;19;20343;-70
2023/04/26 08:58:53;;;;;;;6.35;2.03;;;;;;;8.55;60.61;102231.25;6100772;19;20389;-70
2023/04/26 09:01:00;;;;;;;1.70;1.60;;;;;;;8.63;59.78;102232.03;6101405;19;20006;-70
2023/04/26 09:03:05;;;;;;;3.80;2.05;;;;;;;8.81;59.81;102227.50;6102436;19;20124;-70
2023/04/26 09:05:11;;;;;;;4.55;2.08;;;;;;;8.81;58.77;102233.59;6101430;19;20022;-70
2023/04/26 09:07:23;;;;;;;2.65;1.50;;;;;;;8.66;59.15;102224.19;6101331;19;20014;-70
2023/04/26 09:09:29;;;;;;;3.65;1.70;;;;;;;8.76;59.27;102231.03;6101837;19;20498;-70
2023/04/26 09:11:52;;;;;;;6.72;1.88;;;;;;;8.84;58.03;102227.47;6099901;19;20027;-70
2023/04/26 09:13:58;;;;;;;6.38;2.15;;;;;;;8.83;58.95;102231.84;6093196;19;20003;-69
2023/04/26 09:16:03;;;;;;;2.53;1.58;;;;;;;8.36;57.41;102231.38;6101879;19;20006;-70
2023/04/26 09:18:23;;;;;;;4.47;2.35;;;;;;;8.42;59.91;102233.13;6098613;19;20014;-70
2023/04/26 09:20:30;;;;;;;2.42;1.65;;;;;;;8.58;58.35;102236.47;6100033;19;20813;-70
2023/04/26 09:22:39;;;;;;;5.18;2.30;;;;;;;8.50;58.80;102239.16;6100348;19;20007;-70
2023/04/26 09:24:53;;;;;;;6.22;2.42;;;;;;;8.03;60.85;102242.13;6099120;19;20006;-70
2023/04/26 09:27:03;;;;;;;5.07;2.03;;;;;;;8.00;62.43;102242.16;6102763;19;20522;-70
2023/04/26 09:29:14;;;;;;;3.97;2.33;;;;;;;7.45;66.38;102244.25;6101581;19;20086;-71
2023/04/26 09:31:38;;;;;;;2.63;2.05;;;;;;;6.76;68.64;102244.47;6104748;19;20522;-70
2023/04/26 09:34:01;;;;;;;3.72;2.53;;;;;;;6.41;70.31;102259.34;6103421;19;20484;-69
2023/04/26 09:36:16;;;;;;;7.32;2.70;;;;;;;6.60;70.89;102253.22;6101829;19;20081;-78
2023/04/26 09:38:25;;;;;;;4.57;2.47;;;;;;;6.42;71.02;102246.28;6104713;19;20010;-77
2023/04/26 09:40:31;;;;;;;4.97;2.40;;;;;;;6.57;70.45;102243.66;6109621;19;20094;-78
2023/04/26 09:42:37;;;;;;;3.90;2.08;;;;;;;6.61;67.52;102241.91;6108067;19;20011;-78
2023/04/26 09:44:42;;;;;;;3.40;1.95;;;;;;;6.62;66.72;102240.16;6108931;19;20019;-77
2023/04/26 09:47:00;;;;;;;4.28;2.40;;;;;;;6.87;65.61;102238.38;6109854;19;20459;-78
2023/04/26 09:49:06;;;;;;;5.32;2.38;;;;;;;7.25;64.52;102238.25;6109997;19;20017;-77
2023/04/26 09:51:12;;;;;;;8.35;2.53;;;;;;;7.54;62.94;102242.47;6105319;19;20013;-78
2023/04/26 09:53:30;;;;;;;5.22;2.17;;;;;;;7.71;60.53;102232.75;6102905;19;20006;-77
2023/04/26 09:55:35;;;;;;;5.82;2.30;;;;;;;8.03;61.42;102235.19;6105289;19;20023;-78
2023/04/26 09:57:45;;;;;;;4.03;1.80;;;;;;;8.33;60.94;102235.78;6102903;19;20010;-76
2023/04/26 09:59:55;;;;;;;4.97;2.10;;;;;;;8.67;59.28;102236.38;6098215;19;20006;-77